Canadian Empress — VX6095 — position and weather

sailwx.info

Track history (hours):
 
Tides and Currents Weather Stations Pressure Air Temp Water Temp Dewpoint Dewpoint Depression Visibility Wind Speed Wind Dir Waves Ship Positions

Canadian Empress

Last reported at 2015-Aug-30 16:16 UTC. Time now 2015-Sep-02 04:22 UTC.
Position N 45°15' W 073°58'.

Length 30 m.

Type: Passenger vessel. MMSI: 314954012.

Date/timePositionNaut miles runAvg speedWind from/ knotsBaromVisibWave heightAir tempDewpointWater temp
2015-Aug-30 16:16N 45°15' W 073°58'4 4.8
2015-Aug-30 15:23N 45°19' W 073°55'1 1.6
2015-Aug-30 14:33N 45°20' W 073°54'6 5.8
2015-Aug-30 13:33N 45°24' W 073°48'6 6.3
2015-Aug-30 12:32N 45°24' W 073°39'62 2.5
2015-Aug-29 11:33N 46°14' W 072°45'8 8.4
2015-Aug-29 10:33N 46°18' W 072°34'3 2.8
2015-Aug-29 09:33N 46°20' W 072°32'0 0.0
2015-Aug-28 19:25N 46°20' W 072°32'4 4.5
2015-Aug-28 18:33N 46°23' W 072°28'8 7.5
2015-Aug-28 17:33N 46°26' W 072°18'7 7.2
2015-Aug-28 16:33N 46°32' W 072°11'2 0.1
2015-Aug-27 12:14N 46°30' W 072°14'710.4
2015-Aug-27 11:33N 46°25' W 072°22'9 0.8
2015-Aug-27 00:33N 46°20' W 072°32'0 0.0
2015-Aug-26 23:33N 46°20' W 072°32'0 0.0
2015-Aug-26 22:33N 46°20' W 072°32'0 0.0
2015-Aug-26 21:33N 46°20' W 072°32'0 0.0
2015-Aug-26 20:33N 46°20' W 072°32'0 0.0
2015-Aug-26 19:33N 46°20' W 072°32'0 0.0
2015-Aug-26 18:33N 46°20' W 072°32'1 0.6
2015-Aug-26 17:33N 46°20' W 072°32'9 9.3
2015-Aug-26 16:33N 46°15' W 072°44'64 2.5
2015-Aug-25 15:16N 45°25' W 073°39'5 7.5
2015-Aug-25 14:33N 45°24' W 073°47'8 7.6
2015-Aug-25 13:34N 45°19' W 073°55'2 2.5
2015-Aug-25 12:33N 45°17' W 073°57'7 7.4
2015-Aug-25 11:33N 45°13' W 074°06'  
2015-Aug-22 00:30N 44°14' W 076°24'5 4.9
2015-Aug-21 23:33N 44°13' W 076°31'2 1.5
2015-Aug-21 22:31N 44°14' W 076°29'2 0.4
2015-Aug-21 17:33N 44°14' W 076°26'  
Track history (hours):
 
Tides and Currents Weather Stations Pressure Air Temp Water Temp Dewpoint Dewpoint Depression Visibility Wind Speed Wind Dir Waves Ship Positions

Canadian Empress

Last reported at 2015-Aug-30 16:16 UTC. Time now 2015-Sep-02 04:22 UTC.
Position N 45°15' W 073°58'.

Length 30 m.

Type: Passenger vessel. MMSI: 314954012.

Date/timePositionNaut miles runAvg speedWind from/ knotsBaromVisibWave heightAir tempDewpointWater temp
2015-Aug-30 16:16N 45°15' W 073°58'4 4.8
2015-Aug-30 15:23N 45°19' W 073°55'1 1.6
2015-Aug-30 14:33N 45°20' W 073°54'6 5.8
2015-Aug-30 13:33N 45°24' W 073°48'6 6.3
2015-Aug-30 12:32N 45°24' W 073°39'62 2.5
2015-Aug-29 11:33N 46°14' W 072°45'8 8.4
2015-Aug-29 10:33N 46°18' W 072°34'3 2.8
2015-Aug-29 09:33N 46°20' W 072°32'0 0.0
2015-Aug-28 19:25N 46°20' W 072°32'4 4.5
2015-Aug-28 18:33N 46°23' W 072°28'8 7.5
2015-Aug-28 17:33N 46°26' W 072°18'7 7.2
2015-Aug-28 16:33N 46°32' W 072°11'2 0.1
2015-Aug-27 12:14N 46°30' W 072°14'710.4
2015-Aug-27 11:33N 46°25' W 072°22'9 0.8
2015-Aug-27 00:33N 46°20' W 072°32'0 0.0
2015-Aug-26 23:33N 46°20' W 072°32'0 0.0
2015-Aug-26 22:33N 46°20' W 072°32'0 0.0
2015-Aug-26 21:33N 46°20' W 072°32'0 0.0
2015-Aug-26 20:33N 46°20' W 072°32'0 0.0
2015-Aug-26 19:33N 46°20' W 072°32'0 0.0
2015-Aug-26 18:33N 46°20' W 072°32'1 0.6
2015-Aug-26 17:33N 46°20' W 072°32'9 9.3
2015-Aug-26 16:33N 46°15' W 072°44'64 2.5
2015-Aug-25 15:16N 45°25' W 073°39'5 7.5
2015-Aug-25 14:33N 45°24' W 073°47'8 7.6
2015-Aug-25 13:34N 45°19' W 073°55'2 2.5
2015-Aug-25 12:33N 45°17' W 073°57'7 7.4
2015-Aug-25 11:33N 45°13' W 074°06'  
2015-Aug-22 00:30N 44°14' W 076°24'5 4.9
2015-Aug-21 23:33N 44°13' W 076°31'2 1.5
2015-Aug-21 22:31N 44°14' W 076°29'2 0.4
2015-Aug-21 17:33N 44°14' W 076°26'  

Dump ship's entire track history